Latest Weather Observations for Minlaton Airport

IDS60801

Issued at 8:51 pm CDT Monday 17 December 2018 (issued every 10 minutes, with the page automatically refreshed every 10 minutes)

About weather observations | Map of weather stations | Latest weather observations for SA | Other Formats
Station Details ID: 022031 Name: MINLATON AERO Lat: -34.75 Lon: 137.53 Height: 32.0 m
Data from the previous 72 hours. | See also: Recent months at Minlaton Airport
Date/Time
CDT
Temp
°C
App
Temp
°C
Dew
Point
°C
Rel
Hum
%
Delta-T
°C
Wind Press
QNH
hPa
Press
MSL
hPa
Rain since
9am
mm
Dir  Spd
km/h
Gust
km/h
Spd
kts
Gust
kts
17/08:30pm 18.1 13.9 13.4 74 2.7 SE 28 33 15 18 1011.9 1011.8 0.0
17/08:00pm 18.5 14.2 13.1 71 3.0 SE 28 35 15 19 1011.8 1011.7 0.0
17/07:30pm 20.4 15.4 13.4 64 4.0 SE 32 41 17 22 1011.9 1011.8 0.0
17/07:00pm 21.1 15.8 13.0 60 4.6 SE 33 44 18 24 1011.6 1011.5 0.0
17/06:30pm 22.6 18.1 13.7 57 5.2 SE 30 39 16 21 1011.5 1011.4 0.0
17/06:00pm 23.3 18.5 14.0 56 5.5 SE 32 39 17 21 1011.3 1011.2 0.0
17/05:30pm 23.5 19.4 13.9 55 5.6 SSE 28 39 15 21 1011.6 1011.5 0.0
17/05:00pm 23.9 19.9 14.0 54 5.8 SE 28 41 15 22 1011.5 1011.4 0.0
17/04:30pm 24.2 19.5 14.3 54 5.9 SE 32 41 17 22 1011.6 1011.5 0.0
17/04:00pm 23.7 18.7 14.1 55 5.6 ESE 33 41 18 22 1011.8 1011.7 0.0
17/03:30pm 24.9 20.7 13.5 49 6.7 SE 28 37 15 20 1012.4 1012.3 0.0
17/03:00pm 23.3 19.6 14.0 56 5.5 SE 26 35 14 19 1012.2 1012.1 0.0
17/02:30pm 25.7 21.0 13.2 46 7.3 ESE 30 41 16 22 1011.7 1011.6 0.0
17/02:00pm 24.3 21.3 13.8 52 6.2 SE 22 32 12 17 1012.5 1012.4 0.0
17/01:30pm 24.6 21.6 13.8 51 6.3 SSE 22 35 12 19 1013.5 1013.4 0.0
17/01:00pm 24.1 21.7 13.9 53 6.0 SE 19 30 10 16 1013.8 1013.7 0.0
17/12:30pm 23.3 20.8 14.0 56 5.5 SE 20 32 11 17 1014.0 1013.9 0.0
17/12:00pm 22.4 20.6 13.2 56 5.3 SSE 15 28 8 15 1014.2 1014.1 0.0
17/11:30am 22.5 20.0 14.1 59 4.9 SE 20 30 11 16 1014.2 1014.1 0.0
17/11:00am 21.6 18.7 14.0 62 4.4 SE 22 30 12 16 1014.0 1013.9 0.0
17/10:30am 21.9 18.5 13.8 60 4.7 E 24 35 13 19 1013.7 1013.6 0.0
17/10:00am 21.0 18.3 13.4 62 4.4 ESE 20 28 11 15 1013.5 1013.4 0.0
17/09:30am 21.0 17.9 14.6 67 3.8 ESE 24 33 13 18 1013.2 1013.1 0.0
17/09:00am 20.4 18.1 14.7 70 3.3 ESE 20 26 11 14 1013.1 1013.0 0.0
17/08:30am 18.3 15.5 14.2 77 2.4 ESE 22 32 12 17 1012.9 1012.8 0.0
17/08:00am 18.4 15.8 14.9 80 2.0 ESE 22 30 12 16 1012.3 1012.2 0.0
17/07:30am 16.8 14.5 14.6 87 1.3 SE 20 28 11 15 1011.7 1011.6 0.0
17/07:00am 16.4 15.2 14.1 86 1.3 SE 13 19 7 10 1011.7 1011.6 0.0
17/06:30am 16.2 13.9 14.0 87 1.2 SE 19 26 10 14 1011.6 1011.5 0.0
17/06:00am 15.8 12.8 13.6 87 1.2 SE 22 28 12 15 1011.2 1011.1 0.0
17/05:30am 15.9 13.2 13.4 85 1.4 SE 20 30 11 16 1011.2 1011.1 0.0
17/05:00am 16.1 13.1 13.8 86 1.3 SE 22 28 12 15 1011.3 1011.2 0.0
17/04:30am 16.4 13.8 13.9 85 1.4 SSE 20 30 11 16 1011.5 1011.4 0.0
17/04:00am 16.4 13.9 14.1 86 1.3 SSE 20 28 11 15 1011.5 1011.4 0.0
17/03:30am 16.1 13.3 14.3 89 1.0 SSE 22 30 12 16 1011.2 1011.1 0.0
17/03:00am 16.0 13.2 14.4 90 0.9 SSE 22 32 12 17 1011.4 1011.3 0.0
17/02:30am 16.1 13.7 14.3 89 1.0 SSE 20 28 11 15 1011.5 1011.4 0.0
17/02:00am 16.1 13.9 14.3 89 1.0 SSE 19 22 10 12 1011.7 1011.6 0.0
17/01:30am 16.3 14.1 14.5 89 1.0 SSE 19 24 10 13 1011.8 1011.7 0.0
17/01:00am 16.1 14.3 14.5 90 0.9 SSE 17 20 9 11 1011.5 1011.4 0.0
17/12:30am 16.2 14.7 14.2 88 1.1 SE 15 19 8 10 1011.8 1011.7 0.0
17/12:00am 17.0 15.2 14.5 85 1.4 SSE 17 22 9 12 1012.2 1012.1 0.0
 
Date/Time
CDT
Temp
°C
App
Temp
°C
Dew
Point
°C
Rel
Hum
%
Delta-T
°C
Wind Press
QNH
hPa
Press
MSL
hPa
Rain since
9am
mm
Dir  Spd
km/h
Gust
km/h
Spd
kts
Gust
kts
16/11:30pm 17.5 15.5 15.0 85 1.5 SSE 19 24 10 13 1012.2 1012.1 0.0
16/11:00pm 17.7 16.0 14.8 83 1.7 SSE 17 24 9 13 1012.1 1012.0 0.0
16/10:30pm 18.2 16.1 15.3 83 1.7 SSE 20 26 11 14 1012.0 1011.9 0.0
16/10:00pm 18.2 16.5 15.8 86 1.4 SE 19 28 10 15 1011.8 1011.7 0.0
16/09:30pm 19.2 17.6 15.9 81 2.0 S 19 24 10 13 1011.4 1011.3 0.0
16/09:00pm 19.6 17.6 15.0 75 2.7 SSW 19 26 10 14 1010.9 1010.8 0.0
16/08:30pm 20.2 18.0 15.0 72 3.1 S 20 26 11 14 1010.6 1010.5 0.0
16/08:00pm 20.9 18.3 15.0 69 3.5 S 22 30 12 16 1010.3 1010.2 0.0
16/07:30pm 21.2 19.0 16.0 72 3.1 SW 22 28 12 15 1009.8 1009.7 0.0
16/07:00pm 20.5 17.9 15.9 75 2.8 WSW 24 32 13 17 1009.1 1009.0 0.0
16/06:30pm 19.3 15.6 16.0 81 2.0 W 30 39 16 21 1009.1 1009.0 0.0
16/06:00pm 19.4 15.7 16.1 81 2.0 W 30 37 16 20 1008.9 1008.8 0.0
16/05:30pm 19.0 15.3 15.9 82 1.8 W 30 39 16 21 1008.9 1008.8 0.0
16/05:00pm 19.4 15.1 15.5 78 2.3 W 32 39 17 21 1008.7 1008.6 0.0
16/04:30pm 20.2 16.9 16.0 77 2.5 W 28 35 15 19 1008.8 1008.7 0.0
16/04:00pm 20.4 17.7 15.6 74 2.9 W 24 30 13 16 1008.7 1008.6 0.0
16/03:30pm 20.7 17.7 15.9 74 2.9 W 26 32 14 17 1008.9 1008.8 0.0
16/03:00pm 21.4 18.7 15.5 69 3.5 W 24 28 13 15 1008.7 1008.6 0.0
16/02:30pm 21.3 18.4 15.2 68 3.6 W 24 28 13 15 1009.0 1008.9 0.0
16/02:00pm 23.0 20.1 15.1 61 4.7 W 24 30 13 16 1008.9 1008.8 0.0
16/01:30pm 22.4 20.0 15.3 64 4.2 W 22 30 12 16 1009.2 1009.1 0.0
16/01:00pm 22.8 20.3 16.1 66 4.1 WSW 24 30 13 16 1009.3 1009.2 0.0
16/12:30pm 21.2 17.1 14.8 67 3.8 W 30 35 16 19 1009.6 1009.5 0.0
16/12:00pm 22.1 18.2 15.5 66 4.0 W 30 35 16 19 1009.6 1009.5 0.0
16/11:30am 20.6 17.4 15.4 72 3.1 W 26 32 14 17 1009.5 1009.4 0.0
16/11:00am 20.5 18.3 14.8 70 3.3 W 20 26 11 14 1009.2 1009.1 0.0
16/10:30am 19.7 17.6 15.1 75 2.7 W 20 26 11 14 1009.1 1009.0 0.0
16/10:00am 19.1 17.1 15.0 77 2.4 WSW 19 22 10 12 1008.8 1008.7 0.0
16/09:30am 18.8 16.7 15.1 79 2.2 SW 20 26 11 14 1008.8 1008.7 0.0
16/09:00am 18.7 16.2 15.2 80 2.1 SW 22 28 12 15 1008.5 1008.4 0.2
16/08:30am 17.8 15.2 14.9 83 1.7 SW 22 28 12 15 1008.2 1008.1 0.2
16/08:00am 17.8 15.7 15.1 84 1.6 SW 20 28 11 15 1007.7 1007.6 0.2
16/07:30am 18.0 16.0 15.4 85 1.5 SW 20 26 11 14 1007.4 1007.3 0.2
16/07:00am 17.1 15.2 15.1 88 1.2 SW 19 22 10 12 1007.3 1007.2 0.2
16/06:30am 16.7 14.5 14.9 89 1.0 SW 20 24 11 13 1006.9 1006.8 0.2
16/06:00am 16.7 15.1 15.1 90 0.9 SW 17 22 9 12 1006.8 1006.7 0.2
16/05:30am 16.7 15.1 15.1 90 0.9 SW 17 22 9 12 1006.4 1006.3 0.2
16/05:00am 16.6 14.6 15.0 90 0.9 SW 19 20 10 11 1006.2 1006.1 0.2
16/04:30am 16.6 14.6 15.0 90 0.9 WSW 19 24 10 13 1006.3 1006.2 0.2
16/04:00am 16.6 14.5 14.8 89 1.0 SW 19 26 10 14 1006.1 1006.0 0.2
16/03:30am 16.7 14.7 14.9 89 1.0 SW 19 24 10 13 1005.8 1005.7 0.2
16/03:00am 16.8 14.7 14.8 88 1.2 SW 19 24 10 13 1005.7 1005.6 0.2
16/02:30am 17.1 15.2 15.1 88 1.2 SW 19 22 10 12 1005.8 1005.7 0.2
16/02:00am 17.3 16.5 15.1 87 1.3 SW 13 19 7 10 1005.9 1005.8 0.2
16/01:30am 17.4 17.0 15.2 87 1.3 SSW 11 15 6 8 1005.8 1005.7 0.2
16/01:00am 17.5 16.0 15.3 87 1.3 SSW 17 20 9 11 1006.0 1005.9 0.2
16/12:30am 17.3 17.3 15.3 88 1.2 SSW 9 11 5 6 1005.9 1005.8 0.2
16/12:00am 17.5 17.7 15.7 89 1.1 SW 9 13 5 7 1005.9 1005.8 0.2
 
Date/Time
CDT
Temp
°C
App
Temp
°C
Dew
Point
°C
Rel
Hum
%
Delta-T
°C
Wind Press
QNH
hPa
Press
MSL
hPa
Rain since
9am
mm
Dir  Spd
km/h
Gust
km/h
Spd
kts
Gust
kts
15/11:30pm 17.2 17.6 15.4 89 1.1 SW 7 9 4 5 1005.9 1005.8 0.2
15/11:00pm 17.0 16.5 15.0 88 1.2 SSW 11 13 6 7 1006.1 1006.0 0.2
15/10:30pm 16.4 16.2 14.6 89 1.0 S 9 11 5 6 1006.0 1005.9 0.2
15/10:00pm 16.5 16.1 14.2 86 1.3 SSW 9 11 5 6 1006.0 1005.9 0.2
15/09:30pm 17.4 16.4 14.7 84 1.6 S 13 17 7 9 1005.3 1005.2 0.2
15/09:00pm 18.5 16.3 15.0 80 2.1 S 20 24 11 13 1005.1 1005.0 0.2
15/08:30pm 19.3 16.7 15.0 76 2.5 S 22 28 12 15 1005.0 1004.9 0.2
15/08:00pm 20.2 18.0 14.3 69 3.4 S 19 28 10 15 1004.8 1004.7 0.2
15/07:30pm 19.8 17.7 16.1 79 2.2 W 22 30 12 16 1004.5 1004.4 0.2
15/07:00pm 19.9 16.4 15.5 76 2.6 WSW 28 35 15 19 1004.3 1004.2 0.2
15/06:30pm 21.4 17.2 15.7 70 3.4 W 32 39 17 21 1003.8 1003.7 0.2
15/06:00pm 21.2 16.8 15.7 71 3.3 W 33 39 18 21 1003.6 1003.5 0.2
15/05:30pm 22.4 18.5 15.5 65 4.1 W 30 37 16 20 1003.6 1003.5 0.2
15/05:00pm 22.2 17.7 15.3 65 4.1 W 33 37 18 20 1003.6 1003.5 0.2
15/04:30pm 23.1 19.7 15.9 64 4.4 W 28 32 15 17 1003.6 1003.5 0.2
15/04:00pm 23.3 20.0 15.1 60 4.9 W 26 33 14 18 1004.1 1004.0 0.2
15/03:30pm 23.8 19.9 15.6 60 5.0 W 30 35 16 19 1004.2 1004.1 0.2
15/03:00pm 23.9 20.7 15.4 59 5.1 WSW 26 35 14 19 1004.2 1004.1 0.2
15/02:30pm 22.0 20.9 17.2 74 3.0 WSW 19 26 10 14 1004.7 1004.6 0.2
15/02:00pm 20.4 17.8 16.0 76 2.6 W 24 30 13 16 1005.2 1005.1 0.2
15/01:30pm 20.5 17.8 16.5 78 2.4 W 26 32 14 17 1005.2 1005.1 0.2
15/01:00pm 22.4 20.1 16.7 70 3.5 WSW 24 30 13 16 1005.4 1005.3 0.2
15/12:30pm 21.7 19.4 15.8 69 3.6 W 22 28 12 15 1005.4 1005.3 0.0
15/12:00pm 20.4 19.2 16.0 76 2.6 SW 17 28 9 15 1005.8 1005.7 0.0
15/11:30am 20.9 20.7 16.7 77 2.6 SSW 13 17 7 9 1006.0 1005.9 0.0
15/11:00am 19.4 18.5 16.8 85 1.6 SW 17 20 9 11 1006.2 1006.1 0.0
15/10:30am 19.3 19.7 16.2 82 1.9 SSW 9 13 5 7 1006.1 1006.0 0.0
15/10:00am 19.0 19.0 17.3 90 1.0 SSE 13 17 7 9 1006.6 1006.5 0.0
15/09:30am 17.7 17.1 16.6 93 0.7 SW 15 20 8 11 1006.7 1006.6 0.0
15/09:00am 17.6 16.7 16.8 95 0.5 SSW 17 19 9 10 1006.5 1006.4 1.8
15/08:30am 17.0 15.8 16.2 95 0.5 SSW 17 20 9 11 1006.1 1006.0 1.8
15/08:00am 16.7 15.5 16.1 96 0.4 SSW 17 22 9 12 1006.1 1006.0 1.8
15/07:30am 16.7 15.9 16.1 96 0.4 SW 15 19 8 10 1005.9 1005.8 1.8
15/07:00am 16.0 15.7 15.4 96 0.3 SW 11 15 6 8 1005.7 1005.6 1.8
15/06:30am 15.7 15.7 15.1 96 0.3 SSW 9 11 5 6 1005.8 1005.7 1.8
15/06:00am 15.5 14.6 14.9 96 0.3 SSW 13 15 7 8 1005.7 1005.6 1.8
15/05:30am 15.4 14.1 14.8 96 0.3 S 15 19 8 10 1005.6 1005.5 1.8
15/05:00am 15.4 14.9 14.8 96 0.3 SW 11 13 6 7 1005.6 1005.5 1.8
15/04:30am 15.5 14.6 14.9 96 0.3 SSW 13 17 7 9 1005.4 1005.3 1.6
15/04:00am 15.5 14.5 14.7 95 0.5 SSW 13 15 7 8 1005.6 1005.5 1.6
15/03:30am 15.5 16.6 14.5 94 0.6 SW 2 7 1 4 1005.9 1005.8 1.6
15/03:00am 15.5 15.6 14.5 94 0.6 SSW 7 11 4 6 1006.0 1005.9 1.6
15/02:30am 15.4 14.0 14.6 95 0.5 S 15 19 8 10 1005.9 1005.8 1.6
15/02:00am 15.4 14.0 14.6 95 0.5 S 15 19 8 10 1006.1 1006.0 1.6
15/01:30am 15.4 14.0 14.6 95 0.5 SSW 15 24 8 13 1006.5 1006.4 1.6
15/01:00am 15.3 14.3 14.5 95 0.5 S 13 17 7 9 1007.0 1006.9 1.6
15/12:30am 15.4 14.3 14.4 94 0.6 S 13 17 7 9 1007.3 1007.2 1.4
15/12:00am 15.4 13.2 14.4 94 0.6 S 19 28 10 15 1007.3 1007.2 1.4
 
Date/Time
CDT
Temp
°C
App
Temp
°C
Dew
Point
°C
Rel
Hum
%
Delta-T
°C
Wind Press
QNH
hPa
Press
MSL
hPa
Rain since
9am
mm
Dir  Spd
km/h
Gust
km/h
Spd
kts
Gust
kts
14/11:30pm 15.3 12.1 14.3 94 0.6 SSE 24 32 13 17 1007.5 1007.4 1.4
14/11:00pm 15.4 11.6 14.6 95 0.5 SSE 28 37 15 20 1007.8 1007.7 1.4
14/10:30pm 15.3 11.4 14.3 94 0.6 SSE 28 39 15 21 1007.7 1007.6 1.4
14/10:00pm 15.4 11.1 14.4 94 0.6 S 30 39 16 21 1007.8 1007.7 1.4
14/09:30pm 15.5 11.2 14.4 93 0.6 SSE 30 43 16 23 1007.7 1007.6 1.4
14/09:00pm 15.5 11.6 14.4 93 0.6 SSE 28 37 15 20 1007.5 1007.4 1.4

Other Formats:

Comma delimited format used in spreadsheet applications
http://www.bom.gov.au/fwo/IDS60801/IDS60801.95659.axf

JavaScript Object Notation format (JSON) in row-major order
http://www.bom.gov.au/fwo/IDS60801/IDS60801.95659.json